富山空港

2019/12/03

定点 富山空港 2019/12/3 tue

久しぶりの定点。冬近しで、一日冷たい雨の日。

RJNT 022300Z 17004KT 120V210 9999 -SHRA FEW010 SCT020 BKN030 07/05 Q1017

20191203_rjnt_00ja79an

ANA313 RJTT-RJNT JA79AN B737-881

RJNT 030000Z VRB02KT 9999 -SHRA FEW010 SCT020 BKN030 07/05 Q1018

20191203_rjnt_01ja79an

20191203_rjnt_02ja79an

ANA316 RJNT-RJTT JA79AN B737-881

RJNT 030100Z 16005KT 090V200 8000 -SHRA FEW010 SCT020 BKN030 07/05 Q1018

20191203_rjnt_03ja89an

羽衣を引いていますが、強くはありません。

20191203_rjnt_04ja89an

右からの横風で、ウイングロー

20191203_rjnt_05ja89an

ANA315 RJTT-RJNT JA89AN B737-8AL

RJNT 030200Z 21008KT 140V320 9000 -SHRA FEW010 SCT020 BKN030 08/04 Q1017

20191203_rjnt_06kouen

公園にはイノシシ出現

20191203_rjnt_07ja89an

雨は、みぞれっぽい

20191203_rjnt_08ja89an

20191203_rjnt_09ja89an

20191203_rjnt_10ja89an

ANA1181 RJNT-RJCC JA89AN B737-8AL

20191203_rjnt_11ja89an

冬空の様で、ところどころに青空スポットも

20191203_rjnt_12xmas

今年も廻るサンタに、屋上にあった立て看が・・

RJNT 030300Z 21009KT 180V250 9999 -SHRA FEW010 SCT025 BKN050 09/05 Q1017

20191203_rjnt_13b5260

20191203_rjnt_14b5260

CSH825 ZSPD-RJNT B-5260 B737-76D

RJNT 030500Z 22009KT 9999 -SHRA FEW005 BKN020 07/05 Q1018

20191203_rjnt_15b5260

20191203_rjnt_16b5260

20191203_rjnt_17b5260

CSH826 RJNT-ZSPD B-5260 B737-76D

20191203_rjnt_18b5260

今年もあと少し。ラストスパート。

| | コメント (0)

2019/11/16

定点 富山空港 2019/11/16 sat

ご無沙汰の河原。生憎の雨模様ですが、水飛沫に期待。

RJNT 160000Z VRB02KT 9999 -SHRA FEW010 SCT035 BKN050 10/06 Q1018

20191116_rjnt_00ja84an

20191116_rjnt_01ja84an

ANA316 RJNT-RJTT JA84AN B737-881

RJNT 160100Z 21003KT 9999 -SHRA FEW010 SCT040 BKN050 10/07 Q1018

20191116_rjnt_02ja70an

20191116_rjnt_03ja70an

ANA315 RJTT-RJNT JA70AN B737-881

RJNT 160200Z 17003KT 140V200 9999 -SHRA FEW005 SCT050 BKN060 10/08 Q1018

20191116_rjnt_04b6652

20191116_rjnt_05b6652

20191116_rjnt_06b6652

CSN613 ZYTL-RJNT B-6652 A320-232

20191116_rjnt_07ja70an

RJNT 160300Z 15003KT 050V210 9999 -SHRA FEW005 SCT050 BKN070 11/08 Q1018

20191116_rjnt_08ja70an

20191116_rjnt_09ja70an

ANA1181 RJNT-RJCC JA70AN B737-881

20191116_rjnt_10b6652

20191116_rjnt_11b6652

CSN614 RJNT-ZYTL B-6652 A320-232

20191116_rjnt_12b5269

20191116_rjnt_13b5269

20191116_rjnt_14b5269

CSH825 ZSPD-RJNT B-5269 B737-76D

| | コメント (0)

2019/10/28

定点 富山空港 2019/10/28 mon

今日は、日の出前から晴れぇ

RJNT 272300Z VRB01KT 9999 FEW020 14/10 Q1019

20191028_rjnt_00ja85an

空が青い

20191028_rjnt_01ja85an

MEDICでホールディングして高度処理

20191028_rjnt_02ja85an

20191028_rjnt_03ja85an

ANA313 RJTT-RJNT JA85AN B737-881

RJNT 280000Z 21004KT 190V250 9999 FEW030 15/10 Q1019

20191028_rjnt_04ja10ym

朝一の搬送先、富大病院から直接次の現場へ

20191028_rjnt_05ja6512

JA6512 AS350B3 AKF ↓

20191028_rjnt_06ja85an

20191028_rjnt_07ja85an

ANA316 RJNT-RJTT JA85AN B737-881

20191028_rjnt_08ja85an

煙突撮ったつもりでは・・ ないのだが

RJNT 280100Z VRB01KT 9999 FEW025 18/12 Q1019

20191028_rjnt_09ja6512

JA6512↑

20191028_rjnt_10b9951

20191028_rjnt_11b9951

CSN613 ZYTL-RJNT B-9951 A320-232

20191028_rjnt_12ja10ym

婦中町二件目

20191028_rjnt_13ja01ad

トンビさんを避けながら・・

20191028_rjnt_14ja01ad

20191028_rjnt_15ja01ad

JA01AD C208B HRT

20191028_rjnt_16ja57an

20191028_rjnt_17ja57an

ANA315 RJTT-RJNT JA57AN B737-881

RJNT 280200Z 34004KT 250V040 9999 FEW025 18/10 Q1018

20191028_rjnt_18ja02kg

昨日08KGさんが北へ向かったので、入れ替わりですかね。

20191028_rjnt_19ja02kg

JA02KG A109E KGK

20191028_rjnt_20b9951

20191028_rjnt_21b9951

20191028_rjnt_22b9951

CSN614 RJNT-ZYTL B-9951 A320-232

20191028_rjnt_23ja6512

JA6512↓

20191028_rjnt_24aki

空港周辺も紅葉が見頃に

20191028_rjnt_25ja6516

JA6516 AS350B3 AKF ↓

20191028_rjnt_26b18617

20191028_rjnt_27b18617

CAL170 RCTP-RJNT B-18617 B737-809

20191028_rjnt_28b18617

20191028_rjnt_29ja02kg

お土産をいっぱい持ってお帰りです。

20191028_rjnt_30b18617

山は綺麗ですよ。

20191028_rjnt_31ja02kg

JA02KG↑ また寄ってかれぇ 次は岡南の模様

20191028_rjnt_32ja57an

RJNT 280300Z 35007KT 9999 FEW030 18/08 Q1017

20191028_rjnt_33ja57an

20191028_rjnt_34ja57an

ANA1181 RJNT-RJCC JA57AN B737-881

20191028_rjnt_35ja6512

JA6512↑

20191028_rjnt_36ja6502

JA6502 AS350B3 AKF ↓

RJNT 280400Z 36008KT 9999 FEW030 19/09 Q1017

20191028_rjnt_37b18617

20191028_rjnt_38b18617

CAL171 RJNT-RCTP B-18617 B737-809

20191028_rjnt_39ja119w

お天気が良いので、Wさんが出てきた

20191028_rjnt_40ja6507

JA6502 スターターがかわいい

20191028_rjnt_41ja119w

エンジンスタート

20191028_rjnt_42ja6507

JA6502↑

20191028_rjnt_43ja119w

ホイスト良し

20191028_rjnt_44ja119w

JA119W AW139 富山県消防防災

20191028_rjnt_45ja119w

南東へ向かっていかれました。

 

| | コメント (0)

2019/10/25

定点 富山空港 2019/10/23 wed

内篭りして写真の整理をしたいのですが、お天気様が誘ってきます。

RJNT 222300Z VRB01KT 9999 FEW010 18/15 Q1017

20191023_rjnt_00daiichimiyamaru

第一宮丸 JD3144 JP

20191023_rjnt_01ja604a

上空通過

20191023_rjnt_02akane

今日はタンデム飛行隊がひっきりなしに西へ向かってます

20191023_rjnt_03ja604a

何処見ても、映りこみます。

20191023_rjnt_04ja604a

ANA313 RJTT-RJNT JA604A B767-381ER

RJNT 230000Z VRB01KT 9999 FEW010 19/15 Q1017

20191023_rjnt_05ja604a

本日、北陸新幹線のダイヤ発表 25日から東京直通します。

20191023_rjnt_06ja604a

赤い羽根の時期ですね。

20191023_rjnt_07ja604a

20191023_rjnt_08ja604a

ANA316 RJNT-RJTT JA604A B767-381ER

20191023_rjnt_09ja604a

大型化は明日まで

RJNT 230100Z VRB02KT 9999 FEW030 20/14 Q1017

20191023_rjnt_10b6652

20191023_rjnt_11b6652

CSN613 ZYTL-RJNT B-6652 A320-232

20191023_rjnt_12ja80an

20191023_rjnt_13ja80an

ANA315 RJTT-RJNT JA80AN B737-881

RJNT 230100Z VRB02KT 9999 FEW030 20/14 Q1017

20191023_rjnt_14ja6768

「とやま」さんが引き出されましたが、午前中はチンとしてました。

20191023_rjnt_15b6652

CSN614 RJNT-ZYTL B-6652 A320-232

20191023_rjnt_16ja80an

ANA1181 RJNT-RJCC JA80AN B737-881

RJNT 230300Z 35007KT 330V030 9999 FEW030 SCT040 21/14 Q1017

20191023_rjnt_17ja6512

JA6512 AS350B3 AKF

今日は午前で離脱、夜にはB8も来ました。

 

| | コメント (0)

2019/10/24

定点 富山空港 2019/10/22 tue

北陸新幹線の不通で、大型化継続中の空の便です。

RJNT 212300Z 18004KT 9999 VCSH FEW005 SCT020 BKN/// 16/15 Q1012

20191022_rjnt_00ja610a

5年前は普通の景色

20191022_rjnt_01ja610a

ただ、もっぱらERばかり

20191022_rjnt_02ja610a

ANA313 RJTT-RJNT JA610A B767-381ER

20191022_rjnt_03ja610a

雨は朝で上がりました。

RJNT 220000Z VRB02KT 9999 FEW015 BKN110 18/15 Q1012

20191022_rjnt_04ja610a

以外にも20デパーチャー 久しぶりなので慎重です。

20191022_rjnt_05ja610a

煙突が近くに感じます

20191022_rjnt_06ja610a

20191022_rjnt_07ja610a

ANA316 RJNT-RJTT JA610A B767-381ER

20191022_rjnt_08ja610a

西の空は、青空に

20191022_rjnt_09tsurugi

立山連峰は初冠雪

RJNT 220100Z VRB02KT 9999 FEW010 BKN/// 19/16 Q1011

20191022_rjnt_10ja85an

東北フラワー なにもかもお祝いです。

20191022_rjnt_11ja85an

ANA315 RJTT-RJNT JA85AN B737-881

この日は、これから山に散策へ

 

| | コメント (0)

2019/10/23

北陸三県合同防災航空隊訓練 南砺市 2019/10/22 tue

「即位礼正殿の儀」を祝いながら、この日はのんびり散策に・・

20191022_nanto_00nanto

富山平野のどん詰まりの処

20191022_nanto_01bay

遠く新湊大橋が望めます

20191022_nanto_02bousai

今回のホストさま

20191022_nanto_03ja6768

富山空港から「とやま」さん飛来

20191022_nanto_04ja6768

駐車場に着陸

20191022_nanto_05ja6768

チョット場所直しね

20191022_nanto_06ja6768

着陸すると直ぐ、周辺警戒に散開

20191022_nanto_07ja6507

JA6507 AS350B3 AKF

ラインパトロールをしていたへりが何事かと、見ていきました。

20191022_nanto_08ja893f

続いて「はくさん」さん

20191022_nanto_09ja893f

着陸地点の山肌から枯葉が舞い舞い

20191022_nanto_10ja893f

無事着陸

20191022_nanto_11bousai

着陸すると到着報告に

20191022_nanto_12ja893f

ベル412EPが並びました

20191022_nanto_13ja291a

トリは「BLUE ARROW」さん

20191022_nanto_14ja291a

軽やかに横滑りしながら高度を落として

20191022_nanto_15ja291a

到着

20191022_nanto_16ja291a

北陸三県の消防防災へりが並い踏み

20191022_nanto_17ja291a

JA291A BK117C-2 福井県防災航空隊

20191022_nanto_18ja893f

JA893F B412EP 石川県消防防災航空隊

20191022_nanto_19ja6768

JA6768 B412EP 富山県消防防災航空隊

20191022_nanto_20bousai

全員集合してのブリーフィング

20191022_nanto_21ja6768

この並びは今年限り、来年は富山、石川は新しい機体に

20191022_nanto_22ja893f

訓練のトップバッターは石川県

20191022_nanto_23ja893f

スターターパックを使ってエンジンスタート

20191022_nanto_24ja893f

一度整列してから、乗り込み

20191022_nanto_25ja893f

訓練課題は崖下と崖上にそれぞれ要救助者がいて、それぞれ症状が不明。一定時間内に救助する。

20191022_nanto_26ja893f

旋廻して現場状況を確認・・

20191022_nanto_27ja893f

アプローチ、まず二名救難員をホイストで降ろします。

20191022_nanto_28ja893f

訓練を見守ります

20191022_nanto_29ja893f

離れて待機

20191022_nanto_30ja893f

崖下から一人吊り上げ

20191022_nanto_31bousai

崖上の要救助者吊り上げ

20191022_nanto_32ja893f

収容して、離脱します。

20191022_nanto_33ja893f

駐機場所に戻って・・

20191022_nanto_34ja893f

お疲れさまでした。

20191022_nanto_35ja291a

二番手は福井県

20191022_nanto_36ja291a

BKはケロシンスタートバーナーでエンジンスタートします。

20191022_nanto_37ja291a

20191022_nanto_38ja291a

小気味良い動きでアプローチ

20191022_nanto_39ja219a

救難員を降ろします

20191022_nanto_40ja219a

要救助者をストレッチャーに固定して吊り上げ

20191022_nanto_41ja219a

収容

20191022_nanto_42ja219a

次の要救助者も収容

20191022_nanto_43ja219a

終了

20191022_nanto_44ja219a

お疲れ様でした。

20191022_nanto_45ja6768

トリは富山県 まず掛け声をかけながら装備確認から

20191022_nanto_46ja6768

整列して、訓練開始

20191022_nanto_47ja6768

エンジンスタート

20191022_nanto_48ja6768

準備OK

20191022_nanto_49ja6768

整備さんに見送られて離陸

20191022_nanto_51ja6768

周回しながら現場状況確認

20191022_nanto_51ja6768_20191022215501

アプローチ

20191022_nanto_52bousai

こんな木々の間に降ろしていきます。

20191022_nanto_53ja6768

一度退避して、地上の準備が整ったら再アプローチ

20191022_nanto_54ja6768

20191022_nanto_55ja6768

まずは一人目

20191022_nanto_56ja6768

二人目はストレッチャーで

20191022_nanto_57ja6768

下面確認をして着陸

20191022_nanto_58ja6768

終了、敬礼

20191022_nanto_59ja6768

実地訓練が終了して・・ 評価中

20191022_nanto_60ja291a

講評が終って、しばし機体公開

20191022_nanto_61ja291a

間近に見せてもらえます。

20191022_nanto_62ja291a

撤収の邪魔にならないように・・

20191022_nanto_63ja893f

石川県隊はご家族さんも見学に来てたね

20191022_nanto_64ja893f

20191022_nanto_65ja6768

お子様は中にも乗せてくれたよ。

20191022_nanto_66ja6768

20191022_nanto_67ja6768

西空から雲が張り出していて、暗いし寒いです。

20191022_nanto_68ja6768

ちょっと近寄って

20191022_nanto_69ja893f

同じスターターパックでした。当たり前か・・

20191022_nanto_70ja291a

最後に、全員そろっての記念撮影

20191022_nanto_71ja6768

本来ならホストが最後なのですが、緊急運行が入ったので「とやま」が一番に離陸。

20191022_nanto_72ja6768

おつかれさまー

20191022_nanto_73ja291a

二番手は「BLUE ARROW」さん

20191022_nanto_74ja893f

「はくさん」さんも乗り込み

20191022_nanto_75ja291a

20191022_nanto_76ja291a

おつかれさまー

20191022_nanto_77ja291a

また来てねー

20191022_nanto_78ja893f

「はくさん」離陸

20191022_nanto_79ja893f

ありがとうございました。

20191022_nanto_80ja893f

またどこかで・・

楽しいヘリフェスでした。

20191022_nanto_90ja6768

スキー場から下道で戻ったら、橋の上で着陸確認

20191022_nanto_91ja6768

燃料補給して格納庫に収容となりました。ほどなく日の入。一日お疲れ様でした。

 

| | コメント (0)

2019/10/19

定点 富山空港 2019/10/19 sat

本日もあまり天候は良く無さそうで、被災地への雨が気になります。

RJNT 182300Z VRB01KT 8000 FEW005 BKN070 BKN100 18/17 Q1014

20191019_rjnt_00ja6768

JA6768 B412EP 富山県消防防災

「とやま」さんがS&Rに出動

RJNT 190000Z 34006KT 300V010 9999 VCSH FEW007 BKN060 BKN100 19/18 Q1014

20191019_rjnt_01ja8971

朝は大型化でB6

20191019_rjnt_02ja8971

ANA313 RJTT-RJNT JA8971 B767-381ER

20191019_rjnt_03ja8971

昔の883を思い出します。

20191019_rjnt_04ja6768

防災さん帰ってきた

20191019_rjnt_05ja6768

JA6768 ↓

20191019_rjnt_06ja6768

後報を確認すると黒部峡谷で滑落事故の模様

20191019_rjnt_07ja8971

20191019_rjnt_08ja8971

このサイズがお似合いで

20191019_rjnt_09ja8971

北陸新幹線が思いのほか早く回復しそうなので、後しばらくかな。

20191019_rjnt_10ja8971

ANA316 RJNT-RJTT JA8971 B767-381ER

20191019_rjnt_11ja10ym

JA10YM A109SP SAK 富山県ドクターへり

雨雲が迫ってきたようで、いち早く閉店です。

RJNT 190100Z 36004KT 320V040 9999 VCSH FEW005 BKN010 BKN070 20/17 Q1015

20191019_rjnt_12b9951

CSN613 ZYTL-RJNT B-9951 A320-232

20191019_rjnt_13ja68an

ANA315 RJTT-RJNT JA68AN B737-881

RJNT 190200Z 04003KT 340V090 8000 VCSH FEW010 BKN013 21/17 Q1014

20191019_rjnt_14ja68an

20191019_rjnt_15ja68an

ANA1181 RJNT-RJCC JA68AN B737-881

20191019_rjnt_16b9951

20191019_rjnt_17b9951

20191019_rjnt_18b9951

CSN614 RJNT-ZYTL B-9951 A320-232

RJNT 190300Z 34006KT 310V010 8000 -SHRA BR FEW010 BKN013 FEW020CB 20/18 Q1014

20191019_rjnt_19b5260

雨雲が厚くなっています

20191019_rjnt_20b5260

20191019_rjnt_21b5260

CSH825 ZSPD-RJNT B-5260 B737-76D

20191019_rjnt_22b5260

雷雲を避けて能登半島の向こうまで逃げてから、やって来ました。

RJNT 190432Z VRB02KT 5000 -SHRA BR FEW003 BKN012 BKN025 19/18 Q1013 RMK 2ST003 5CU012 7CU025 A2992 P/FR

20191019_rjnt_23b5260

CSH826 RJNT-ZSPD B-5260 B737-76D

RJNT 190500Z 33003KT 300V020 8000 -SHRA FEW005 SCT012 BKN020 19/18 Q1013

20191019_rjnt_24ja06fj

なんがーいリボンを引いて

20191019_rjnt_25ja06fj

20191019_rjnt_26ja06fj

FDA8362 RJFG-RJNT JA06FJ ERJ-175STD

RJNT 190600Z 23004KT 5000 -SHRA BR BKN005 BKN025 BKN045 19/18 Q1014

20191019_rjnt_27ja06fj

出発時刻を過ぎても動かない、紫さん

20191019_rjnt_28ja68an

千歳便が先に降りることに

20191019_rjnt_29ja68an

ANA1182 RJCC-RJNT JA68AN B737-881

20191019_rjnt_30ja06fj

バゲージトラブルだった模様

20191019_rjnt_31ja06fj

FDA8365 RJNT-RJFG JA08FJ ERJ-175STD

20191019_rjnt_32ja06fj

明日は稚内からやって来ます。

 

| | コメント (0)

2019/10/17

定点 富山空港 2019/10/17 thu

前回、台風19号接近中の岩瀬浜のその後。

20191017_rjnt_00iwasehama

当日強風により出来た砂州が、こんなに延びていた。

20191017_rjnt_01iwasehama

残留物はそんなに多くはないが、大きな流木が混じっていた。

20191017_rjnt_02iwasehama

陸地が延びて、テトラポットまで届きそう

RJNT 162300Z VRB01KT 9999 FEW010 BKN/// 13/10 Q1026

20191017_rjnt_03ja606a

北陸新幹線不通により東京便は大型化されている。

20191017_rjnt_04ja606a

ANA313 RJTT-RJNT JA606A B767-381ER

RJNT 170000Z VRB02KT 9999 FEW040 BKN/// 16/12 Q1026

20191017_rjnt_05ja829d

JA829D R66 ↑ 秋は測量シーズン

20191017_rjnt_06ja9427

JA9427 AS350B NNK ↓

20191017_rjnt_07ja6512

JA6512 AS350B3 AKF ↑

20191017_rjnt_08ja606a

まだ川の流れは濁っています。

20191017_rjnt_09ja606a

20191017_rjnt_10ja606a

ANA316 RJNT-RJTT JA606A B767-381ER

RJNT 170100Z 04005KT 350V070 9999 FEW040 BKN/// 17/10 Q1025

20191017_rjnt_11ja9427

JA9427 ↑

20191017_rjnt_12info

本日は、フジドの秋チャーターに青組増便

20191017_rjnt_13ja78an

20191017_rjnt_14ja78an

ANA315 RJTT-RJNT JA78AN B737-881

20191017_rjnt_15ja78an

JA01PWがランナップしてました。

RJNT 170200Z 03007KT 360V070 9999 FEW030 SCT190 BKN/// 17/10 Q1025

20191017_rjnt_16b18667

20191017_rjnt_17b18667

CAL170 RCTP-RJNT B-18667 B737-8AL

20191017_rjnt_18b18667

台湾からのお客様は安定しています。

20191017_rjnt_19ja78an

20191017_rjnt_20ja78an

ANA1181 RJNT-RJCC JA78AN B737-881

RJNT 170300Z 02008KT 330V060 9999 FEW030 SCT190 BKN/// 18/10 Q1025

20191017_rjnt_21ja829d

JA829D ↑

20191017_rjnt_22ja11fj

種子島からの飛来

20191017_rjnt_23ja11fj

FDA8362 RJFG-RJNT JA11FJ ERJ-175STD

20191017_rjnt_24ja11fj

折り返しも種子島 H2見に行きたいねぇ。

20191017_rjnt_25ja9427

JA9427 ↓

20191017_rjnt_26ja13aj

JA13AJ C208 ASK ↓

20191017_rjnt_27ja6512

JA6512 ↓

20191017_rjnt_28b18667

続いて出発

20191017_rjnt_29b18667

CAL171 RJNT-RCTP B-18667 B737-8AL

20191017_rjnt_30ja11fj

20191017_rjnt_31ja11fj

FDA8363 RJNT-RJFG JA11FJ ERJ-175STD

20191017_rjnt_32ja11fj

帰りは土曜日

RJNT 170400Z 36008KT 330V040 9999 FEW030 SCT190 BKN/// 19/11 Q1024

20191017_rjnt_33ja01pw

JA01PW AS350B2 ↑ 西へ

20191017_rjnt_34ja829d

JA829D ↑

20191017_rjnt_35ja113a

臨時便

20191017_rjnt_36ja113a

ANA1141 RJTT-RJNT JA113A A321-211

20191017_rjnt_37ja9427

JA9427 ↑

20191017_rjnt_38ja119w

新「とやま」さん離陸

20191017_rjnt_39ja119w

JA119W AW139 富山県消防防災 

RJNT 170500Z 03006KT 350V080 9999 FEW030 SCT060 BKN/// 19/10 Q1024

20191017_rjnt_40ja113a

20191017_rjnt_41ja113a

ANA1142 RJNT-RJTT JA113A A321-211

20191017_rjnt_42ja113a

明日は臨時便が2往復入ります。

20191017_rjnt_43ja6507

JA6507 AS350B3 AKF ↓

20191017_rjnt_44ja119w

一時間のフライトで帰還

20191017_rjnt_45ja119w

20191017_rjnt_46ja119w

JA119W

RJNT 170600Z 01008KT 320V040 9999 FEW030 SCT070 BKN/// 19/11 Q1024

20191017_rjnt_47ja119w

防災航空隊員を乗せて訓練を始めているようです。

20191017_rjnt_48ja119w

「とやま」さんの顔がチラ

20191017_rjnt_49ja119w

こんなところにステップが

20191017_rjnt_50ja119w

ピストルノズル給油なのね

20191017_rjnt_51ja78an

1182は OWARA

20191017_rjnt_52ja78an

ANA1182 RJCC-RJNT JA78AN B737-881

20191017_rjnt_53ja78an

今日は、チョット長居してしまいました。

 

| | コメント (0)

2019/10/13

定点 富山空港 2019/10/13 sun

台風19号は、昨晩の内に当地を通過して、大過なくすんだようでした。しかし、山の向こうの長野では、河川氾濫で甚大な被害が発生している模様。ほんの少しの差で、被災が左右される理不尽さも感じますが、立山信仰は益々深まるばかりです。

RJNT 130200Z 01013G23KT 9000 VCSH FEW010 BKN025 BKN040 18/13 Q1018

20191013_rjnt_00tyo

本日の国内線営業は、ANA320から。昨日避難してきていたフラワーさんは、10時頃に羽田に戻られました。

20191013_rjnt_01b18658

外航は、変わらずやってきます。

20191013_rjnt_02b18658

CAL170 RCTP-RJNT B-18658 B737-8SH

20191013_rjnt_03b18658

団体バスが多かったけど、無事でなによりです。

RJNT 130200Z 01013G23KT 9000 VCSH FEW010 BKN025 BKN040 18/13 Q1018

20191013_rjnt_04b18658

20191013_rjnt_05b18658

CAL171 RJNT-RCTP B-18658 B737-8SH

20191013_rjnt_06ja8600

しばらく待ってみると、IFRで怪しいのがやって来た

20191013_rjnt_07ja8600

JA8600 RJFS-RJNT Gulfstream Aerospace 695 Jetprop 980

20191013_rjnt_08ja8600

短い距離で180

20191013_rjnt_09ja8600

他にはない独特のフォルム

20191013_rjnt_10ja8600

今日は佐賀空港から直接飛来 A-PADジャパンの運航

20191013_rjnt_11ja8600

駐機するのに逆進しました。

RJNT 130200Z 01013G23KT 9000 VCSH FEW010 BKN025 BKN040 18/13 Q1018

20191013_rjnt_12ja01pw

しばらくして2機編隊のヘリコプター

20191013_rjnt_13ja01pw

20191013_rjnt_14ja01pw

JA01PW AS350B2

20191013_rjnt_15ja9727

JA9727 AS350B

20191013_rjnt_16ja9727

どうもこの3機は、一団の模様

20191013_rjnt_17ja9727

そろって給油の後は、物資の取り卸し

20191013_rjnt_18ja01pw

よく観察すると、救難用ボートの用品が・・

20191013_rjnt_19ja123t

20191013_rjnt_20ja123t

20191013_rjnt_21ja123t

JA123T PA-46-350P

20191013_rjnt_22ja123t

エアロコマンダーのお隣へ

20191013_rjnt_23ja02cp

北東から飛来 長野の現場からか

20191013_rjnt_24ja02cp

JA02CP EC135P2 CSP

20191013_rjnt_25ja02cp

賑やかなスポットです

RJNT 130600Z 02011G23KT 340V050 9000 VCSH FEW015 BKN030 BKN040 18/12 Q1019

20191013_rjnt_26ja6502

JA6502 AS350B3 AKF

20191013_rjnt_27ja112a

青組営業便が

20191013_rjnt_28ja112a

20191013_rjnt_29ja112a

ANA1182 RJCC-RJNT JA112A A321-211

20191013_rjnt_30ja112a

今般の台風被害でJR東日本の長野新幹線車両センターが水没した。今後の青組の対応に注目したい。

20191013_rjnt_31ja01pw

どうも資材はここから陸送で、人員のみ乗り込み出発

特定非営利活動法人ピースウィンズ・ジャパンとCivic Force のチームの

【台風19号】緊急支援チーム、被災地へ

令和元年台風19号でピースウィンズ・ジャパン医療・レスキューチームによる緊急支援活動を開始

20191013_rjnt_32ja01pw

JA01PW

20191013_rjnt_33ja9727

JA9727

20191013_rjnt_34ja9727

北東へ向かったので、被災地に向かった模様

RJNT 130700Z 02008KT 350V060 9999 FEW015 BKN030 BKN040 19/12 Q1019

20191013_rjnt_35ja02cp

JA02CP 給油と休憩を終えて、こちらも出発。名古屋へ帰るかと思いきや、北東方面へ。

20191013_rjnt_36ja112a

当然、満席での出発です。

20191013_rjnt_37ja112a

ANA320 RJNT-RJTT JA112A A321-211

全日空では、この後の319/322はB6にサイズアップした上、その後に福岡から回航したB6を1310便として運航した。

 

| | コメント (0)

2019/10/12

来襲 富山空港 2019/10/12 sat

台風19号の来襲により、この週末は全国的に大荒れとなる模様。この週末、いろいろなイベントの為お休みを調整した小生も、ポッカリ台風の目状態に。

RJNT 120000Z 04006KT 010V080 5000 -SHRA BR FEW002 BKN008 BKN012 21/20 Q1004

20191012_rjnt_00ja85an

関東直撃なので、昨日から各社航空機を避難させてます。

20191012_rjnt_02ja85an

本日、早くにANA313で避難してきた JA85AN

20191012_rjnt_03ja51an

昨日の最終で本日312で出発予定だった JA51AN

20191012_rjnt_04rw02

風は北から強風ですが、雨はそれほどでも

RJNT 120100Z 02018G30KT 350V050 3500 SHRA BR FEW002 SCT004 BKN007 22/21 Q1003

20191012_rjnt_05dep

本日の出発便は、新千歳行きのANA1181のみ

20191012_rjnt_06ja85an

ターミナルは強風で、写真を撮ってる場合じゃない

RJNT 120200Z 01021G33KT 3500 -SHRA BR FEW002 BKN005 BKN010 21/20 Q1002

20191012_rjnt_07ja51an

JA51ANはANA1181として新千歳へ

20191012_rjnt_08ja51an

20191012_rjnt_09ja51an

20191012_rjnt_10ja51an

ANA1181 RJNT-RJCC JA51AN B737-881

20191012_rjnt_11ja51an

はたして折り返しは、帰ってこれるのでしょうか

20191012_rjnt_12ja51an

新千歳でエレファント・ウォークを見てみたい

空港はこの一便のみで、帰路で台風の状況を

RJNT 120300Z 01025G40KT 4500 -SHRA BR FEW002 BKN007 BKN010 21/20 Q1000

20191012_zjs_13iwase

岩瀬漁港 波は高いが、うねりは大きくないような

20191012_zjs_14jintsu

富山市消防局の消防艇「神通」さんも、波のあたらない処に避難

20191012_zjs_15iwase

波より砂嵐が酷い

20191012_zjs_16mizuhashi

自然の力は凄いよね

20191012_zjs_17mizuhashi

灯台を飲み込む波頭

20191012_zjs_18mizuhashi

強風により、風害警戒に消防車が出動していました。

午後から空は静かだ

| | コメント (0)

より以前の記事一覧

その他のカテゴリー

BI Boading record aircraft Boading record ship FlightTracking lighthouse NAVAIDS RJNT LOG SKY MASSAGE US NAVY USMC うみ おか そら てつ アクシデント エアロック チーム室屋 三沢飛行場 上五島空港 下地島空港 下総飛行場 与那国空港 中標津空港 中部国際空港 久米島空港 五島福江空港 仙台空港 伊江島空港 但馬空港 佐賀空港 入間飛行場 八尾空港 八戸飛行場 出雲空港 函館空港 利尻空港 北九州空港 十勝飛行場 千歳飛行場 博物館 厚木飛行場 名古屋飛行場 喜界空港 嘉手納飛行場 場外 壱岐空港 大分空港 大湊飛行場 大阪国際空港 大館能代空港 天草空港 奄美空港 奥尻空港 宇部山口空港 宇都宮飛行場 宮古空港 宮崎空港 富山空港 小松島飛行場 小松飛行場 屋久島空港 山形空港 岐阜飛行場 岡山空港 岩国飛行場 帯広空港 広島空港 庄内空港 徳之島空港 徳島飛行場 成田国際空港 新潟空港 新田原飛行場 旭川空港 旭川飛行場 明野飛行場 普天間飛行場 木更津飛行場 札幌飛行場 東京国際空港 松山空港 松島飛行場 松本空港 横田飛行場 沖永良部空港 波照間空港 浜松飛行場 海上保安庁 海上自衛隊 海外 熊本空港 百里飛行場 相馬原飛行場 石垣空港 石見空港 礼文空港 神戸空港 福井空港 福岡空港 福島空港 秋田空港 種子島空港 空撮 立川飛行場 築城飛行場 美保飛行場 能登空港 舞鶴飛行場 航空自衛隊 芦屋飛行場 花巻空港 調布飛行場 警務消防 那覇空港 釧路空港 長崎空港 関西国際空港 陸上自衛隊 隠岐空港 霞ヶ浦飛行場 霞目飛行場 青森空港 静岡空港 静浜飛行場 飛行場跡 飛行船 鹿児島空港 鹿屋飛行場